Flight Track Log - Related Links

Times and Time Zones

All times are in EDT time to prevent confusion due to time zone crossing. See the FLG4262 flight status page for this flight to view local times or setup timezone preferences in your user account.

Time Position Orientation Groundspeed Altitude Reporting Facility
EDT Latitude Longitude Course Direction KTS MPH feet Rate Location/Type
Wed 03:46:50 PM 42.1739 -83.3514 179° South 157 181 2,300  Level Cleveland Center
Wed 03:47:45 PM 42.1256 -83.3503 179° South 198 228 4,200 1,725 Climbing Cleveland Center
Wed 03:48:10 PM 42.1078 -83.3497 179° South 190 219 4,600 1,527 Climbing Cleveland Center
Wed 03:48:40 PM 42.0728 -83.3286 156° South 278 320 5,600 2,323 Climbing Cleveland Center
Wed 03:49:12 PM 42.0675 -83.2722 97° East 270 311 7,000 2,866 Climbing Cleveland Center
Wed 03:49:47 PM 42.0822 -83.2089 73° East 282 325 8,800 2,226 Climbing Cleveland Center
Wed 03:50:14 PM 42.0853 -83.1800 82° East 287 330 9,300 1,475 Climbing Cleveland Center
Wed 03:50:48 PM 42.1150 -83.1067 61° Northeast 323 372 10,300 1,452 Climbing Cleveland Center
Wed 03:51:16 PM 42.1347 -83.0533 63° Northeast 327 376 10,800 1,667 Climbing Cleveland Center
Wed 03:52:18 PM 42.1800 -82.9369 62° Northeast 353 406 12,800 1,742 Climbing Cleveland Center
Wed 03:53:20 PM 42.2267 -82.8161 62° Northeast 364 419 14,400 1,488 Climbing Cleveland Center
Wed 03:54:23 PM 42.2750 -82.6931 62° Northeast 373 429 15,900 1,488 Climbing Cleveland Center
Wed 03:55:25 PM 42.3239 -82.5681 62° Northeast 377 434 17,500 1,306 Climbing Cleveland Center
Wed 03:56:27 PM 42.3644 -82.4069 71° East 390 449 18,600 1,016 Climbing Cleveland Center
Wed 03:57:29 PM 42.3600 -82.2625 92° East 387 445 19,600 968 Climbing Cleveland Center
Wed 03:58:31 PM 42.3531 -82.1103 93° East 395 455 20,600 968 Climbing Cleveland Center
Wed 03:59:33 PM 42.3464 -81.9589 93° East 399 459 21,600 1,016 Climbing Cleveland Center
Wed 04:00:35 PM 42.3397 -81.8056 93° East 404 465 22,700 1,016 Climbing Cleveland Center
Wed 04:01:37 PM 42.3325 -81.6522 94° East 404 465 23,700 968 Climbing Cleveland Center
Wed 04:02:39 PM 42.3256 -81.4989 93° East 405 466 24,700 1,065 Climbing Cleveland Center
Wed 04:03:41 PM 42.3175 -81.3208 93° East 403 464 25,900 1,065 Climbing Cleveland Center
Wed 04:04:43 PM 42.3100 -81.1692 94° East 401 461 26,900 532 Climbing Cleveland Center
Wed 04:05:45 PM 42.3017 -81.0153 94° East 405 466 27,000 48 Climbing Cleveland Center
Wed 04:06:48 PM 42.2939 -80.8547 94° East 420 483 27,000  Level Cleveland Center
Wed 04:07:50 PM 42.2842 -80.6872 94° East 437 503 27,000 -242 Level Cleveland Center
Wed 04:08:52 PM 42.2839 -80.5172 90° East 447 514 26,500 -726 Descending Cleveland Center
Wed 04:09:54 PM 42.2839 -80.3386 90° East 467 537 25,500 -726 Descending Cleveland Center
Wed 04:10:56 PM 42.2847 -80.1569 90° East 479 551 25,000 -242 Descending Cleveland Center
Wed 04:11:58 PM 42.2842 -79.9647 90° East 475 547 25,000  Level Cleveland Center
Wed 04:13:00 PM 42.2833 -79.7886 90° East 473 544 25,000  Level Cleveland Center
Wed 04:14:02 PM 42.2822 -79.5767 90° East 474 545 25,000  Level Cleveland Center
Wed 04:15:04 PM 42.2814 -79.4022 90° East 469 540 25,000  Level Cleveland Center
Wed 04:16:06 PM 42.2800 -79.2258 91° East 473 544 25,000  Level Cleveland Center
Wed 04:17:08 PM 42.2778 -79.0506 91° East 470 541 25,000  Level Cleveland Center
Wed 04:18:10 PM 42.2767 -78.8572 90° East 471 542 25,000  Level Cleveland Center
Wed 04:19:12 PM 42.2742 -78.6811 91° East 470 541 25,000  Level Cleveland Center
Wed 04:20:14 PM 42.2725 -78.5044 91° East 472 543 25,000  Level Cleveland Center
Wed 04:21:17 PM 42.2694 -78.3297 91° East 471 542 25,000  Level Cleveland Center
Wed 04:22:19 PM 42.2661 -78.1219 91° East 467 537 25,000 -97 Level Cleveland Center
Wed 04:23:21 PM 42.2628 -77.9478 91° East 467 537 24,800 -726 Descending Cleveland Center
Wed 04:24:23 PM 42.2592 -77.7733 92° East 471 542 23,500 -1,258 Descending Cleveland Center
Wed 04:25:25 PM 42.2558 -77.6050 91° East 459 528 22,200 -1,258 Descending Cleveland Center
Wed 04:26:27 PM 42.2528 -77.4419 91° East 444 511 20,900 -1,403 Descending Cleveland Center
Wed 04:27:29 PM 42.2478 -77.2494 92° East 434 499 19,300 -1,036 Descending Cleveland Center
Wed 04:28:17 PM 42.2433 -77.1153 93° East 436 502 19,000 -722 Descending New York Center
Wed 04:29:17 PM 42.2411 -76.9583 91° East 426 490 18,000 -1,850 Descending New York Center
Wed 04:30:17 PM 42.2364 -76.8094 92° East 415 478 15,300 -2,700 Descending New York Center
Wed 04:31:17 PM 42.2297 -76.6883 94° East 390 449 12,600 -2,600 Descending New York Center
Wed 04:32:17 PM 42.2275 -76.5678 91° East 352 405 10,100 -1,850 Descending New York Center
Wed 04:33:17 PM 42.2222 -76.4608 94° East 312 359 8,900 -1,150 Descending New York Center
Wed 04:34:17 PM 42.2211 -76.3542 91° East 291 335 7,800 -1,350 Descending New York Center
Wed 04:35:17 PM 42.2403 -76.2550 75° East 271 312 6,200 -1,550 Descending New York Center
Wed 04:36:17 PM 42.2608 -76.1672 72° East 259 298 4,700 -1,300 Descending New York Center
Wed 04:37:17 PM 42.2808 -76.0903 71° East 233 268 3,600 -900 Descending New York Center
Wed 04:38:17 PM 42.2672 -76.0275 106° East 206 237 2,900 -600 Descending New York Center
Wed 04:39:17 PM 42.2336 -75.9856 137° Southeast 162 186 2,400 -500 Descending New York Center

Login

Don't have an account? Register now (free) for customized features, flight alerts, and more!